Rapports des METAR proches

 

LFAQ - Bray, France
Distance from station: SSO 19km
Mise à jour: 25/04/2024 04:00
Clair
Clair
 Vent O
Vent: O 9 km/h
Température: 4°C
Température au vent: 2°C
Point de rosée: 2°C
Humidité: 87%
Baromètre: 1010 hPa
Résumé: Clair
Visibility: greater than 10 km
2024/04/25 02:00 LFAQ 250200Z AUTO 28005KT CAVOK 04/02 Q1010
LFQQ - Lille/Lesquin, France
Distance from station: NNE 53km
Mise à jour: 25/04/2024 04:00
Très nuageux
Très nuageux
 Vent SO
Vent: SO 9 km/h
Température: 4°C
Température au vent: 2°C
Point de rosée: 3°C
Humidité: 93%
Baromètre: 1010 hPa
Clouds: Très nuageux
Visibility: 10 km
Cloud details: Quelques nuages 1006 m
Partiellement nuageux 1311 m
Très nuageux 1768 m
2024/04/25 02:00 LFQQ 250200Z AUTO 22005KT 9999 FEW033 SCT043 BKN058 04/03 Q1010 NOSIG
EBCV - Chievres Ab, Belgium
Distance from station: NE 88km
Mise à jour: 25/04/2024 03:55
Quelques nuages
Quelques nuages
 Vent OSO
Vent: OSO 9 km/h
Température: 3°C
Température au vent: 0°C
Point de rosée: 2°C
Humidité: 93%
Baromètre: 1010 hPa
Clouds: Quelques nuages
Visibility: 10 km
Cloud details: Quelques nuages 6706 m
2024/04/25 01:55 EBCV 250155Z AUTO 24005KT 9999 FEW220/// 03/02 Q1010 BLU
 
LFOB - Beauvais/Tille(A, France
Distance from station: SSO 88km
Mise à jour: 25/04/2024 04:00
Clair
Clair
 Vent ONO
Vent: ONO 4 km/h
Température: 4°C
Point de rosée: 3°C
Humidité: 93%
Baromètre: 1011 hPa
Résumé: Clair
Visibility: greater than 10 km
2024/04/25 02:00 LFOB 250200Z AUTO 30002KT CAVOK 04/03 Q1011 TEMPO 4000 BR OVC002
LFAT - Le Touquet/P. Pl, France
Distance from station: ONO 93km
Mise à jour: 25/04/2024 04:00
Couvert
Couvert
 Vent ESE
Vent: ESE 6 km/h
Température: 4°C
Point de rosée: 3°C
Humidité: 93%
Baromètre: 1010 hPa
Clouds: Couvert
Visibility: 10 km
Cloud details: Quelques nuages 975 m
Couvert 1951 m
2024/04/25 02:00 LFAT 250200Z AUTO 12003KT 9999 FEW032 OVC064 04/03 Q1010
EBFN - Koksijde (bel-Af, Belgium
Distance from station: N 105km
Mise à jour: 25/04/2024 03:55
Couvert
Couvert
 Vent ONO
Vent: ONO 13 km/h
Température: 7°C
Température au vent: 5°C
Point de rosée: 1°C
Humidité: 66%
Baromètre: 1009 hPa
Clouds: Couvert
Visibility: 10 km
Cloud details: Couvert 1707 m
2024/04/25 01:55 EBFN 250155Z AUTO 29007KT 9999 OVC056/// 07/01 Q1009 BLU
 
EBOS - Oostende Airport, Belgium
Distance from station: N 119km
Mise à jour: 25/04/2024 04:20
Quelques nuages
Quelques nuages
 Vent ONO
Vent: ONO 19 km/h
Température: 7°C
Température au vent: 4°C
Point de rosée: 2°C
Humidité: 71%
Baromètre: 1009 hPa
Clouds: Quelques nuages
Visibility: 10 km
Cloud details: Quelques nuages 732 m
2024/04/25 02:20 EBOS 250220Z 30010KT 9999 FEW024 07/02 Q1009 NOSIG
EBCI - Charleroi/Gossel, Belgium
Distance from station: ENE 124km
Mise à jour: 25/04/2024 04:20
Très nuageux
Très nuageux
 Vent OSO
Vent: OSO 13 km/h
Température: 2°C
Température au vent: -1°C
Point de rosée: 1°C
Humidité: 93%
Baromètre: 1009 hPa
Clouds: Très nuageux
Visibility: 8 km
Cloud details: Quelques nuages 427 m
Très nuageux 1219 m
2024/04/25 02:20 EBCI 250220Z 24007KT 8000 FEW014 BKN040 02/01 Q1009 NOSIG
LFPG - Charles De Gaull, France
Distance from station: S 125km
Mise à jour: 25/04/2024 04:00
Clair
Clair
 Vent O
Vent: O 6 km/h
Température: 6°C
Point de rosée: 1°C
Humidité: 71%
Baromètre: 1011 hPa
Résumé: Clair
Visibility: greater than 10 km
2024/04/25 02:00 LFPG 250200Z 27003KT CAVOK 06/01 Q1011 NOSIG
 
LFPT - Cormeilles Vexin, France
Distance from station: SSO 127km
Mise à jour: 25/04/2024 04:00
Clair
Clair
 Vent O
Vent: O 6 km/h
Température: 4°C
Point de rosée: 3°C
Humidité: 93%
Baromètre: 1011 hPa
Résumé: Clair
Visibility: greater than 10 km
2024/04/25 02:00 LFPT 250200Z AUTO 27003KT CAVOK 04/03 Q1011
LFPB - Paris/Le Bourget, France
Distance from station: S 132km
Mise à jour: 25/04/2024 04:00
Clair
Clair
 Vent varies
Vent: varies 4 km/h
Température: 6°C
Point de rosée: 2°C
Humidité: 76%
Baromètre: 1011 hPa
Résumé: Clair
Visibility: greater than 10 km
2024/04/25 02:00 LFPB 250200Z AUTO VRB02KT CAVOK 06/02 Q1011 NOSIG
EBFS - Florennes (bel-A, Belgium
Distance from station: E 133km
Mise à jour: 25/04/2024 04:10
Couvert
Couvert
 Vent O
Vent: O 13 km/h
Température: 2°C
Température au vent: -1°C
Point de rosée: 1°C
Humidité: 93%
Baromètre: 1009 hPa
Clouds: Couvert
Visibility: 10 km
Cloud details: Partiellement nuageux 152 m
Très nuageux 2286 m
Couvert 2896 m
2024/04/25 02:10 EBFS 250210Z AUTO 27007KT 9999 SCT005/// BKN075/// OVC095/// 02/01 Q1009 YLO
 
LFQA - Reims/Prunay, France
Distance from station: SE 143km
Mise à jour: 25/04/2024 04:00
Clair
Clair
 Vent calm
Vent: calme
Température: 4°C
Point de rosée: 3°C
Humidité: 93%
Baromètre: 1010 hPa
Résumé: Clair
Visibility: greater than 10 km
2024/04/25 02:00 LFQA 250200Z AUTO 00000KT CAVOK 04/03 Q1010
LFOP - Rouen/Boos (aut), France
Distance from station: SO 144km
Mise à jour: 25/04/2024 04:00
Clair
Clair
 Vent varies
Vent: varies 6 km/h
Température: 4°C
Point de rosée: 2°C
Humidité: 87%
Baromètre: 1011 hPa
Résumé: Clair
Visibility: greater than 10 km
2024/04/25 02:00 LFOP 250200Z AUTO VRB03KT CAVOK 04/02 Q1011
EBBR - Brussels Nationa, Belgium
Distance from station: NE 148km
Mise à jour: 25/04/2024 04:20
Clair
Clair
 Vent OSO
Vent: OSO 9 km/h
Température: 4°C
Température au vent: 2°C
Point de rosée: 2°C
Humidité: 87%
Baromètre: 1009 hPa
Résumé: Clair
Visibility: greater than 10 km
2024/04/25 02:20 EBBR 250220Z 25005KT CAVOK 04/02 Q1009 NOSIG
 
EBBE - Beauvechain (baf, Belgium
Distance from station: ENE 156km
Mise à jour: 25/04/2024 03:55
Partiellement nuageux
Partiellement nuageux
 Vent OSO
Vent: OSO 9 km/h
Température: 3°C
Température au vent: 0°C
Point de rosée: 2°C
Humidité: 93%
Baromètre: 1009 hPa
Clouds: Partiellement nuageux
Visibility: 10 km
Cloud details: Partiellement nuageux 2286 m
2024/04/25 01:55 EBBE 250155Z AUTO 25005KT 9999 SCT075/// 03/02 Q1009 BLU
EHFS - Vlissingen, Netherlands
Distance from station: NNE 157km
Mise à jour: 25/04/2024 03:55
Pluie, Très nuageux
Pluie, Très nuageux
 Vent ONO
Vent: ONO 13 km/h
Température: 5°C
Température au vent: 2°C
Point de rosée: 3°C
Humidité: 87%
Baromètre: 1009 hPa
Résumé: Pluie
Clouds: Très nuageux
Visibility: 10 km
Cloud details: Quelques nuages 488 m
Partiellement nuageux 610 m
Très nuageux 701 m
2024/04/25 01:55 EHFS 250155Z AUTO 30007KT 260V340 9999 RA FEW016/// SCT020/// BKN023/// 05/03 Q1009
LFPV - Villacoublay/Vel, France
Distance from station: SSO 157km
Mise à jour: 25/04/2024 04:00
Clair
Clair
 Vent O
Vent: O 6 km/h
Température: 3°C
Point de rosée: 1°C
Humidité: 87%
Baromètre: 1011 hPa
Résumé: Clair
Visibility: greater than 10 km
2024/04/25 02:00 LFPV 250200Z AUTO 27003KT CAVOK 03/01 Q1011 NOSIG
 
EGMD - Lydd Airport, United Kingdom
Distance from station: NO 160km
Mise à jour: 25/04/2024 04:20
Clair
Clair
 Vent OSO
Vent: OSO 7 km/h
Température: 5°C
Température au vent: 3°C
Point de rosée: 2°C
Humidité: 81%
Baromètre: 1010 hPa
Clouds: Clair
Visibility: 10 km
2024/04/25 02:20 EGMD 250220Z AUTO 25004KT 9999 NCD 05/02 Q1010